Time;durP1;ratioP1;P1;durP2;ratioP2;P2;SDS_P1;SDS_P2;PMS_P1;PMS_P2;Temp;Humidity;BMP_temperature;BMP_pressure;BME280_temperature;BME280_humidity;BME280_pressure;Samples;Min_cycle;Max_cycle;Signal;HPM_P1;HPM_P2
2022/07/24 00:02:05;;;;;;;1.65;1.08;;;;;;;15.08;97.57;101914.47;5074485;28;20039;-70
2022/07/24 00:04:31;;;;;;;1.13;0.80;;;;;;;15.08;97.65;101909.16;5074112;28;20093;-70
2022/07/24 00:06:56;;;;;;;4.68;1.20;;;;;;;15.08;98.26;101914.47;5076189;28;20063;-71
2022/07/24 00:09:21;;;;;;;1.50;0.88;;;;;;;14.86;98.66;101896.34;5077624;28;20071;-70
2022/07/24 00:11:47;;;;;;;2.15;1.08;;;;;;;14.87;99.30;101908.63;5076486;28;20137;-71
2022/07/24 00:14:13;;;;;;;1.55;1.13;;;;;;;14.68;100.00;101891.03;5082457;28;20032;-70
2022/07/24 00:16:38;;;;;;;1.63;1.23;;;;;;;14.79;100.00;101910.22;5082292;28;20036;-70
2022/07/24 00:19:04;;;;;;;2.53;1.35;;;;;;;14.63;100.00;101903.91;5078071;28;20035;-71
2022/07/24 00:21:29;;;;;;;1.63;1.17;;;;;;;14.68;100.00;101907.81;5081236;28;20073;-71
2022/07/24 00:23:54;;;;;;;3.83;1.58;;;;;;;14.63;100.00;101904.75;5080423;28;20117;-71
2022/07/24 00:26:20;;;;;;;2.38;1.17;;;;;;;14.65;100.00;101904.59;5079513;28;20424;-71
2022/07/24 00:28:45;;;;;;;1.95;1.10;;;;;;;14.60;100.00;101891.78;5087054;28;20035;-71
2022/07/24 00:31:11;;;;;;;2.35;1.15;;;;;;;14.64;100.00;101900.28;5065238;28;20032;-71
2022/07/24 00:33:36;;;;;;;2.60;1.88;;;;;;;14.58;100.00;101896.41;5086447;28;20495;-71
2022/07/24 00:36:02;;;;;;;1.90;1.20;;;;;;;14.57;100.00;101897.41;5082674;28;20116;-71
2022/07/24 00:38:28;;;;;;;4.25;1.85;;;;;;;14.54;100.00;101902.97;5087804;28;20039;-71
2022/07/24 00:40:53;;;;;;;2.00;1.40;;;;;;;14.44;100.00;101878.28;5074260;28;20027;-71
2022/07/24 00:43:19;;;;;;;1.55;1.08;;;;;;;14.60;100.00;101889.94;5085483;28;20028;-70
2022/07/24 00:45:45;;;;;;;2.10;1.27;;;;;;;14.60;100.00;101889.13;5075906;28;20028;-70
2022/07/24 00:48:10;;;;;;;3.95;1.35;;;;;;;14.62;100.00;101887.16;5082486;28;20032;-71
2022/07/24 00:50:37;;;;;;;2.60;1.30;;;;;;;14.58;100.00;101894.56;5076293;28;20036;-71
2022/07/24 00:53:03;;;;;;;1.55;1.27;;;;;;;14.59;100.00;101887.47;5074109;28;20036;-71
2022/07/24 00:55:29;;;;;;;3.00;1.95;;;;;;;14.56;100.00;101885.09;5073597;28;20113;-71
2022/07/24 00:57:54;;;;;;;5.40;1.50;;;;;;;14.54;100.00;101881.72;5073206;28;20032;-71
2022/07/24 01:00:21;;;;;;;4.70;1.30;;;;;;;14.54;100.00;101879.06;5081725;28;20119;-71
2022/07/24 01:02:48;;;;;;;2.30;1.33;;;;;;;14.50;100.00;101877.69;5075941;28;20033;-71
2022/07/24 01:05:13;;;;;;;2.13;1.63;;;;;;;14.54;100.00;101882.53;5074909;28;20119;-71
2022/07/24 01:07:39;;;;;;;2.28;1.67;;;;;;;14.47;100.00;101880.66;5073195;28;20111;-71
2022/07/24 01:10:05;;;;;;;2.63;1.35;;;;;;;14.44;100.00;101879.13;5073987;28;20039;-71
2022/07/24 01:12:32;;;;;;;1.70;1.25;;;;;;;14.38;100.00;101880.56;5074190;28;20139;-71
2022/07/24 01:14:58;;;;;;;2.25;1.60;;;;;;;14.36;100.00;101874.56;5077740;28;20036;-71
2022/07/24 01:17:28;;;;;;;1.63;0.85;;;;;;;14.34;100.00;101867.72;5084822;28;20213;-71
2022/07/24 01:19:54;;;;;;;7.20;1.63;;;;;;;14.33;100.00;101864.25;5074756;28;20492;-71
2022/07/24 01:22:19;;;;;;;6.43;1.15;;;;;;;14.33;100.00;101869.56;5072713;28;20052;-71
2022/07/24 01:24:45;;;;;;;2.85;1.95;;;;;;;14.33;100.00;101866.91;5072154;28;20492;-71
2022/07/24 01:27:10;;;;;;;6.03;1.60;;;;;;;14.32;100.00;101870.53;5072477;28;20024;-71
2022/07/24 01:29:36;;;;;;;2.55;1.42;;;;;;;14.34;100.00;101867.72;5074316;28;20508;-71
2022/07/24 01:32:01;;;;;;;3.53;1.60;;;;;;;14.36;100.00;101871.91;5078640;28;20175;-71
2022/07/24 01:34:26;;;;;;;2.33;1.38;;;;;;;14.32;100.00;101862.56;5077537;28;20166;-71
2022/07/24 01:36:52;;;;;;;1.42;1.00;;;;;;;14.33;100.00;101864.25;5071834;28;20373;-70
2022/07/24 01:39:17;;;;;;;1.65;1.27;;;;;;;14.37;100.00;101865.63;5078269;28;20028;-70
2022/07/24 01:41:43;;;;;;;2.88;1.55;;;;;;;14.32;100.00;101854.59;5075797;28;20023;-71
2022/07/24 01:44:08;;;;;;;2.40;1.13;;;;;;;14.24;100.00;101851.88;5072556;28;20028;-71
2022/07/24 01:46:34;;;;;;;3.15;1.60;;;;;;;14.25;100.00;101853.53;5062415;28;20075;-71
2022/07/24 01:48:59;;;;;;;3.15;2.70;;;;;;;14.26;100.00;101849.88;5075648;28;20051;-71
2022/07/24 01:51:25;;;;;;;1.77;1.33;;;;;;;14.22;100.00;101856.50;5080098;28;20101;-71
2022/07/24 01:53:50;;;;;;;2.75;1.17;;;;;;;14.23;100.00;101854.66;5079927;28;20036;-71
2022/07/24 01:56:15;;;;;;;3.10;1.52;;;;;;;14.16;100.00;101855.25;5073763;28;20020;-70
2022/07/24 01:58:41;;;;;;;2.15;1.48;;;;;;;14.12;100.00;101853.06;5073611;28;20028;-70
2022/07/24 02:01:06;;;;;;;2.20;1.52;;;;;;;13.97;100.00;101839.44;5074511;28;20031;-71
2022/07/24 02:03:32;;;;;;;1.50;1.05;;;;;;;13.95;100.00;101836.09;5075796;28;20110;-71
2022/07/24 02:05:57;;;;;;;1.55;1.40;;;;;;;13.98;100.00;101849.91;5061770;28;20032;-71
2022/07/24 02:08:22;;;;;;;3.92;1.88;;;;;;;13.95;100.00;101846.72;5077349;28;20396;-71
2022/07/24 02:10:48;;;;;;;3.53;1.58;;;;;;;13.97;100.00;101850.06;5077262;28;20396;-71
2022/07/24 02:13:13;;;;;;;2.35;1.58;;;;;;;13.94;100.00;101855.66;5078359;28;20036;-71
2022/07/24 02:15:39;;;;;;;5.10;3.10;;;;;;;13.84;100.00;101839.78;5082422;28;20024;-71
2022/07/24 02:18:04;;;;;;;2.22;1.38;;;;;;;13.90;100.00;101852.47;5047472;28;20031;-71
2022/07/24 02:20:30;;;;;;;3.13;1.80;;;;;;;13.89;100.00;101842.00;5074669;28;20030;-71
2022/07/24 02:22:55;;;;;;;2.08;1.63;;;;;;;13.89;100.00;101848.16;5074088;28;20029;-71
2022/07/24 02:25:21;;;;;;;3.50;1.60;;;;;;;13.89;100.00;101842.00;5079898;28;20089;-71
2022/07/24 02:27:47;;;;;;;3.58;2.03;;;;;;;13.90;100.00;101848.97;5073292;28;20020;-71
2022/07/24 02:30:17;;;;;;;4.60;1.85;;;;;;;13.92;100.00;101847.84;5074387;28;20391;-71
2022/07/24 02:32:43;;;;;;;5.82;2.28;;;;;;;13.88;100.00;101841.16;5077766;28;20306;-71
2022/07/24 02:35:09;;;;;;;3.50;2.85;;;;;;;13.75;100.00;101819.44;5074681;28;20491;-71
2022/07/24 02:37:39;;;;;;;4.38;2.55;;;;;;;13.77;100.00;101828.09;5073793;28;20024;-71
2022/07/24 02:40:06;;;;;;;3.40;1.98;;;;;;;13.83;100.00;101850.53;5077822;28;20028;-71
2022/07/24 02:42:32;;;;;;;4.22;2.95;;;;;;;13.65;100.00;101823.94;5080172;28;20525;-71
2022/07/24 02:44:57;;;;;;;4.22;2.05;;;;;;;13.87;100.00;101844.81;5072210;28;20032;-71
2022/07/24 02:47:22;;;;;;;2.10;1.83;;;;;;;13.84;100.00;101839.78;5079852;28;20021;-71
2022/07/24 02:49:48;;;;;;;1.90;1.40;;;;;;;13.82;100.00;101847.06;5077956;28;20052;-71
2022/07/24 02:52:13;;;;;;;3.95;2.50;;;;;;;13.80;100.00;101843.72;5077392;28;20445;-71
2022/07/24 02:54:38;;;;;;;4.50;2.67;;;;;;;13.80;100.00;101841.06;5077785;28;20039;-71
2022/07/24 02:57:04;;;;;;;3.55;2.58;;;;;;;13.79;100.00;101828.78;5073213;28;20240;-71
2022/07/24 02:59:29;;;;;;;2.47;2.05;;;;;;;13.79;100.00;101836.75;5078455;28;20116;-71
2022/07/24 03:01:54;;;;;;;2.63;1.80;;;;;;;13.80;100.00;101830.44;5073473;28;20481;-71
2022/07/24 03:04:20;;;;;;;3.20;1.88;;;;;;;13.82;100.00;101830.31;5073254;28;20385;-71
2022/07/24 03:06:45;;;;;;;4.15;2.15;;;;;;;13.81;100.00;101818.03;5072869;28;20531;-71
2022/07/24 03:09:10;;;;;;;4.75;1.65;;;;;;;13.81;100.00;101823.34;5075437;28;20029;-71
2022/07/24 03:11:36;;;;;;;3.85;1.95;;;;;;;13.83;100.00;101819.56;5076474;28;20012;-71
2022/07/24 03:14:02;;;;;;;7.00;2.33;;;;;;;13.83;100.00;101822.22;5077677;28;20037;-71
2022/07/24 03:16:27;;;;;;;2.70;2.13;;;;;;;13.85;100.00;101817.59;5075696;28;20028;-71
2022/07/24 03:18:53;;;;;;;3.60;1.70;;;;;;;13.88;100.00;101811.16;5073988;28;20484;-71
2022/07/24 03:21:19;;;;;;;3.08;1.92;;;;;;;13.87;100.00;101801.50;5075628;28;20029;-71
2022/07/24 03:23:45;;;;;;;4.63;2.60;;;;;;;13.90;100.00;101796.75;5079581;28;20685;-70
2022/07/24 03:26:10;;;;;;;5.75;2.38;;;;;;;13.90;100.00;101796.75;5076860;28;20505;-70
2022/07/24 03:28:35;;;;;;;2.78;1.60;;;;;;;13.85;100.00;101793.72;5074192;28;20558;-70
2022/07/24 03:31:01;;;;;;;4.25;1.95;;;;;;;13.89;100.00;101800.41;5075099;28;20032;-71
2022/07/24 03:33:28;;;;;;;4.93;2.80;;;;;;;13.91;100.00;101802.88;5076099;28;20072;-71
2022/07/24 03:35:54;;;;;;;7.22;3.33;;;;;;;13.93;100.00;101796.44;5076659;28;20036;-71
2022/07/24 03:38:19;;;;;;;3.00;1.83;;;;;;;13.87;100.00;101789.09;5078819;28;20100;-71
2022/07/24 03:40:45;;;;;;;2.97;1.83;;;;;;;13.89;100.00;101791.56;5073794;28;20120;-71
2022/07/24 03:43:10;;;;;;;6.45;2.60;;;;;;;13.84;100.00;101786.72;5075492;28;20031;-71
2022/07/24 03:45:35;;;;;;;3.63;2.20;;;;;;;13.96;100.00;101797.97;5069800;28;20545;-71
2022/07/24 03:48:01;;;;;;;3.38;2.15;;;;;;;13.81;100.00;101765.78;5077468;28;20043;-71
2022/07/24 03:50:26;;;;;;;2.80;1.83;;;;;;;13.98;100.00;101799.50;5074705;28;20041;-71
2022/07/24 03:52:52;;;;;;;2.85;2.38;;;;;;;13.99;100.00;101789.69;5077271;28;20499;-72
2022/07/24 03:55:18;;;;;;;5.30;2.58;;;;;;;14.00;100.00;101791.34;5076349;28;20024;-71
2022/07/24 03:57:43;;;;;;;3.38;2.28;;;;;;;14.02;100.00;101793.88;5072112;28;20070;-71
2022/07/24 04:00:10;;;;;;;2.17;1.50;;;;;;;14.05;100.00;101791.75;5075915;28;20020;-71
2022/07/24 04:02:35;;;;;;;3.33;2.20;;;;;;;14.06;100.00;101801.38;5076620;28;20021;-71
2022/07/24 04:05:02;;;;;;;3.97;3.65;;;;;;;14.06;100.00;101785.47;5075898;28;20036;-71
2022/07/24 04:07:27;;;;;;;2.60;2.08;;;;;;;14.07;100.00;101786.31;5079450;28;20028;-71
2022/07/24 04:09:53;;;;;;;4.93;2.00;;;;;;;14.11;100.00;101787.66;5079492;28;20123;-71
2022/07/24 04:12:18;;;;;;;3.95;2.42;;;;;;;14.14;100.00;101782.06;5080080;28;20016;-71
2022/07/24 04:14:44;;;;;;;2.53;1.67;;;;;;;14.16;100.00;101778.28;5079997;28;20031;-71
2022/07/24 04:17:09;;;;;;;6.40;2.38;;;;;;;14.16;100.00;101777.44;5079126;28;20032;-71
2022/07/24 04:19:34;;;;;;;2.80;2.55;;;;;;;14.18;100.00;101778.13;5081270;28;20143;-71
2022/07/24 04:22:00;;;;;;;3.08;2.30;;;;;;;14.18;100.00;101783.44;5080220;28;20020;-71
2022/07/24 04:24:25;;;;;;;4.40;2.20;;;;;;;14.17;100.00;101776.44;5078508;28;20028;-71
2022/07/24 04:26:51;;;;;;;3.40;2.47;;;;;;;14.21;100.00;101775.16;5078778;28;20032;-71
2022/07/24 04:29:17;;;;;;;3.90;2.10;;;;;;;14.25;100.00;101776.53;5075138;28;20031;-71
2022/07/24 04:31:42;;;;;;;6.13;2.45;;;;;;;14.24;100.00;101771.38;5080983;28;20513;-70
2022/07/24 04:34:07;;;;;;;2.72;1.92;;;;;;;14.27;100.00;101771.91;5077619;28;20038;-70
2022/07/24 04:36:33;;;;;;;3.47;2.00;;;;;;;14.31;100.00;101780.41;5079875;28;20480;-70
2022/07/24 04:38:58;;;;;;;3.42;2.55;;;;;;;14.35;100.00;101787.91;5078575;28;20038;-71
2022/07/24 04:41:24;;;;;;;3.78;2.40;;;;;;;14.38;100.00;101784.94;5076502;28;20059;-71
2022/07/24 04:43:50;;;;;;;2.83;2.45;;;;;;;14.35;100.00;101782.59;5078987;28;20419;-71
2022/07/24 04:46:16;;;;;;;2.75;2.05;;;;;;;14.42;100.00;101780.19;5076794;28;20035;-71
2022/07/24 04:48:42;;;;;;;2.85;2.30;;;;;;;14.42;100.00;101779.34;5078909;28;20020;-71
2022/07/24 04:51:08;;;;;;;2.80;1.90;;;;;;;14.49;100.00;101783.06;5078346;28;20028;-71
2022/07/24 04:53:33;;;;;;;3.35;1.75;;;;;;;14.46;100.00;101780.69;5078308;28;20075;-71
2022/07/24 04:55:59;;;;;;;3.08;2.42;;;;;;;14.55;100.00;101785.13;5081567;28;20062;-71
2022/07/24 04:58:25;;;;;;;3.05;2.13;;;;;;;14.52;100.00;101785.41;5079858;28;20480;-71
2022/07/24 05:00:51;;;;;;;3.25;2.33;;;;;;;14.44;100.00;101762.28;5077405;28;20028;-71
2022/07/24 05:03:16;;;;;;;3.88;2.08;;;;;;;14.53;100.00;101776.47;5075593;28;20031;-71
2022/07/24 05:05:42;;;;;;;4.38;2.28;;;;;;;14.57;100.00;101770.72;5078344;28;20075;-71
2022/07/24 05:08:07;;;;;;;3.47;1.88;;;;;;;14.64;100.00;101768.28;5080121;28;20028;-70
2022/07/24 05:10:32;;;;;;;2.95;2.33;;;;;;;14.72;100.00;101764.81;5078065;28;20040;-70
2022/07/24 05:12:58;;;;;;;4.32;2.17;;;;;;;14.73;100.00;101742.59;5077996;28;20123;-70
2022/07/24 05:15:23;;;;;;;1.80;1.45;;;;;;;14.89;100.00;101755.97;5056775;28;20047;-71
2022/07/24 05:17:48;;;;;;;4.45;2.50;;;;;;;14.99;100.00;101766.53;5078919;28;20394;-71
2022/07/24 05:20:14;;;;;;;3.10;2.45;;;;;;;15.04;100.00;101736.81;5080903;28;20714;-71
2022/07/24 05:22:39;;;;;;;5.00;2.28;;;;;;;15.32;100.00;101756.06;5078777;28;20031;-71
2022/07/24 05:25:05;;;;;;;3.95;1.92;;;;;;;15.43;100.00;101750.47;5078401;28;20111;-71
2022/07/24 05:27:31;;;;;;;3.03;1.77;;;;;;;15.41;100.00;101741.81;5078975;28;20497;-71
2022/07/24 05:29:56;;;;;;;2.95;2.45;;;;;;;15.51;100.00;101750.50;5056671;28;20028;-71
2022/07/24 05:32:21;;;;;;;4.10;2.97;;;;;;;15.32;100.00;101708.19;5080719;28;20054;-71
2022/07/24 05:34:47;;;;;;;3.20;1.75;;;;;;;15.61;100.00;101745.03;5079107;28;20037;-71
2022/07/24 05:37:12;;;;;;;2.58;2.05;;;;;;;15.64;100.00;101745.56;5081489;28;20051;-71
2022/07/24 05:39:38;;;;;;;3.35;1.85;;;;;;;15.78;100.00;101751.28;5076974;28;20507;-71
2022/07/24 05:42:04;;;;;;;4.72;2.33;;;;;;;15.83;100.00;101731.19;5080639;28;20508;-71
2022/07/24 05:44:29;;;;;;;2.25;1.63;;;;;;;16.01;100.00;101751.50;5076916;28;20450;-71
2022/07/24 05:46:54;;;;;;;3.30;2.33;;;;;;;16.09;100.00;101748.00;5079805;28;20017;-71
2022/07/24 05:49:20;;;;;;;2.72;1.70;;;;;;;16.20;100.00;101747.69;5076205;28;20082;-71
2022/07/24 05:51:45;;;;;;;3.33;2.25;;;;;;;16.23;99.78;101739.38;5080228;28;20085;-72
2022/07/24 05:54:10;;;;;;;3.58;2.10;;;;;;;16.37;99.75;101746.69;5077866;28;20165;-71
2022/07/24 05:56:36;;;;;;;3.47;2.20;;;;;;;16.46;99.59;101739.53;5068578;28;20024;-71
2022/07/24 05:59:01;;;;;;;7.32;2.55;;;;;;;16.54;98.76;101736.88;5070097;28;20473;-71
2022/07/24 06:01:27;;;;;;;2.75;1.90;;;;;;;16.51;98.04;101731.06;5071580;28;20031;-71
2022/07/24 06:03:52;;;;;;;4.05;2.33;;;;;;;16.53;97.63;101734.41;5068191;28;20047;-71
2022/07/24 06:06:17;;;;;;;4.05;2.45;;;;;;;16.51;98.02;101737.22;5070348;28;20028;-71
2022/07/24 06:08:43;;;;;;;4.20;2.65;;;;;;;16.51;97.99;101726.56;5069952;28;20103;-71
2022/07/24 06:11:08;;;;;;;3.15;2.78;;;;;;;16.55;98.29;101733.25;5070122;28;20032;-71
2022/07/24 06:13:34;;;;;;;5.07;2.40;;;;;;;16.65;99.30;101733.03;5052555;28;20031;-71
2022/07/24 06:15:59;;;;;;;3.08;2.03;;;;;;;16.79;98.30;101729.72;5066026;28;20472;-71
2022/07/24 06:18:25;;;;;;;11.32;2.80;;;;;;;16.99;98.13;101724.03;5069387;28;20457;-72
2022/07/24 06:20:50;;;;;;;2.85;2.22;;;;;;;17.26;96.12;101723.59;5070060;28;20300;-71
2022/07/24 06:23:15;;;;;;;4.25;2.17;;;;;;;17.61;95.60;101723.28;5071096;28;20037;-71
2022/07/24 06:25:41;;;;;;;7.38;2.78;;;;;;;18.03;91.79;101722.03;5066993;28;20472;-71
2022/07/24 06:28:06;;;;;;;4.35;1.80;;;;;;;18.14;90.77;101728.81;5064331;28;20508;-70
2022/07/24 06:30:31;;;;;;;4.35;3.08;;;;;;;18.55;90.22;101723.13;5064435;28;20403;-70
2022/07/24 06:32:58;;;;;;;2.90;1.90;;;;;;;18.65;88.62;101731.72;5064882;28;20031;-70
2022/07/24 06:35:25;;;;;;;3.97;2.50;;;;;;;18.63;87.63;101734.56;5065997;28;20097;-70
2022/07/24 06:37:51;;;;;;;4.57;3.10;;;;;;;18.48;87.56;101742.56;5065741;28;20029;-72
2022/07/24 06:40:18;;;;;;;3.30;2.45;;;;;;;18.56;88.13;101738.16;5064972;28;20039;-71
2022/07/24 06:42:45;;;;;;;6.00;3.15;;;;;;;19.07;86.66;101741.00;5066227;28;20492;-71
2022/07/24 06:45:10;;;;;;;4.72;2.47;;;;;;;19.59;83.96;101737.34;5065533;28;20031;-71
2022/07/24 06:47:36;;;;;;;4.40;2.30;;;;;;;19.83;82.61;101730.03;5065684;28;20036;-71
2022/07/24 06:50:02;;;;;;;6.00;2.20;;;;;;;20.04;81.89;101727.38;5064609;28;20052;-71
2022/07/24 06:52:28;;;;;;;3.92;2.67;;;;;;;20.10;82.92;101737.34;5064541;28;20029;-71
2022/07/24 06:54:53;;;;;;;3.65;2.60;;;;;;;20.33;81.48;101737.13;5046550;28;20538;-71
2022/07/24 06:57:19;;;;;;;3.63;2.55;;;;;;;20.61;82.06;101736.34;5067155;28;20111;-71
2022/07/24 06:59:44;;;;;;;4.55;3.20;;;;;;;20.89;79.08;101741.72;5063160;28;20024;-71
2022/07/24 07:02:10;;;;;;;6.22;3.05;;;;;;;21.16;77.67;101742.72;5068497;28;20024;-72
2022/07/24 07:04:35;;;;;;;6.07;2.63;;;;;;;21.61;76.78;101734.25;5066063;28;20020;-71
2022/07/24 07:07:02;;;;;;;6.30;2.90;;;;;;;22.00;74.76;101726.50;5065494;28;20090;-71
2022/07/24 07:09:28;;;;;;;5.72;3.30;;;;;;;22.29;74.10;101736.06;5065007;28;20032;-71
2022/07/24 07:11:53;;;;;;;4.63;3.42;;;;;;;22.13;72.79;101721.94;5067799;28;20028;-71
2022/07/24 07:14:19;;;;;;;5.82;3.78;;;;;;;22.41;73.17;101717.44;5067950;28;20032;-71
2022/07/24 07:16:45;;;;;;;5.25;3.58;;;;;;;22.28;73.22;101729.84;5065505;28;20038;-71
2022/07/24 07:19:11;;;;;;;4.47;3.60;;;;;;;22.42;73.38;101725.28;5068026;28;20450;-70
2022/07/24 07:21:37;;;;;;;9.35;3.88;;;;;;;22.68;73.47;101723.63;5065686;28;20052;-71
2022/07/24 07:24:04;;;;;;;8.02;4.43;;;;;;;22.76;71.30;101718.03;5066781;28;20559;-71
2022/07/24 07:26:29;;;;;;;6.43;3.88;;;;;;;22.63;72.64;101720.75;5065016;28;20042;-71
2022/07/24 07:28:54;;;;;;;4.97;3.63;;;;;;;22.61;73.77;101720.94;5067546;28;20028;-71
2022/07/24 07:31:21;;;;;;;5.28;3.47;;;;;;;22.43;72.64;101726.97;5071107;28;20121;-72
2022/07/24 07:33:47;;;;;;;5.88;3.40;;;;;;;22.65;73.32;101705.22;5065604;28;20037;-70
2022/07/24 07:36:12;;;;;;;5.93;3.85;;;;;;;22.79;71.29;101696.88;5068213;28;20028;-71
2022/07/24 07:38:38;;;;;;;8.85;3.97;;;;;;;22.95;71.57;101719.84;5064960;28;20350;-70
2022/07/24 07:41:04;;;;;;;5.85;3.60;;;;;;;23.20;72.17;101716.47;5069990;28;20036;-70
2022/07/24 07:43:30;;;;;;;6.68;4.22;;;;;;;22.63;72.15;101709.97;5070580;28;20028;-71
2022/07/24 07:45:55;;;;;;;8.88;3.78;;;;;;;23.10;72.46;101722.31;5070326;28;20449;-71
2022/07/24 07:48:20;;;;;;;8.18;4.18;;;;;;;23.53;70.18;101727.09;5069012;28;20104;-71
2022/07/24 07:50:46;;;;;;;5.20;3.35;;;;;;;23.77;70.15;101722.84;5071440;28;20075;-70
2022/07/24 07:53:11;;;;;;;4.85;3.42;;;;;;;24.40;69.80;101718.47;5074614;28;20534;-70
2022/07/24 07:55:37;;;;;;;6.68;3.50;;;;;;;24.98;63.30;101706.50;5072086;28;20566;-70
2022/07/24 07:58:03;;;;;;;6.88;3.50;;;;;;;25.66;63.01;101724.38;5070905;28;20359;-70
2022/07/24 08:00:29;;;;;;;4.80;2.95;;;;;;;26.11;61.64;101713.13;5075268;28;20377;-71
2022/07/24 08:02:54;;;;;;;5.60;3.05;;;;;;;27.01;60.45;101713.84;5072648;28;20058;-71
2022/07/24 08:05:20;;;;;;;4.15;3.13;;;;;;;26.84;57.28;101706.44;5073067;28;20020;-71
2022/07/24 08:07:45;;;;;;;4.50;2.50;;;;;;;26.63;56.72;101716.03;5075512;28;20070;-71
2022/07/24 08:10:11;;;;;;;3.80;2.05;;;;;;;25.88;59.35;101715.75;5075346;28;20035;-71
2022/07/24 08:12:37;;;;;;;5.43;1.92;;;;;;;25.36;60.92;101711.66;5072549;28;20399;-71
2022/07/24 08:15:02;;;;;;;2.92;1.90;;;;;;;25.55;61.22;101720.56;5073637;28;20040;-71
2022/07/24 08:17:28;;;;;;;2.20;1.55;;;;;;;25.10;61.28;101709.28;5076701;28;20074;-71
2022/07/24 08:19:53;;;;;;;3.80;1.70;;;;;;;25.54;61.77;101693.78;5070576;28;20502;-71
2022/07/24 08:22:18;;;;;;;4.53;1.85;;;;;;;25.05;63.01;101702.66;5080612;28;20472;-70
2022/07/24 08:24:44;;;;;;;3.03;1.70;;;;;;;24.99;61.92;101698.16;5076201;28;20082;-70
2022/07/24 08:27:09;;;;;;;2.03;1.30;;;;;;;24.39;62.92;101692.56;5078603;28;20027;-70
2022/07/24 08:29:35;;;;;;;4.95;1.63;;;;;;;24.45;63.60;101694.34;5076558;28;20031;-70
2022/07/24 08:32:02;;;;;;;5.38;1.60;;;;;;;24.51;63.60;101700.75;5074675;28;20140;-71
2022/07/24 08:34:27;;;;;;;3.20;1.83;;;;;;;24.49;63.25;101697.47;5061299;28;20099;-71
2022/07/24 08:36:53;;;;;;;3.72;1.60;;;;;;;24.40;64.05;101699.59;5079196;28;20036;-72
2022/07/24 08:39:18;;;;;;;2.25;1.60;;;;;;;24.99;61.38;101700.88;5079101;28;20386;-71
2022/07/24 08:41:44;;;;;;;2.67;1.50;;;;;;;25.57;61.89;101687.91;5080025;28;20024;-71
2022/07/24 08:44:10;;;;;;;1.90;1.40;;;;;;;25.79;59.08;101694.44;5077953;28;20104;-71
2022/07/24 08:46:41;;;;;;;1.73;1.13;;;;;;;25.36;59.20;101700.88;5078731;28;20120;-70
2022/07/24 08:49:12;;;;;;;2.38;1.30;;;;;;;25.10;60.38;101704.69;5081755;28;20395;-70
2022/07/24 08:51:39;;;;;;;2.88;1.60;;;;;;;;;;5077589;28;20017;-71
2022/07/24 08:54:06;;;;;;;2.15;1.40;;;;;;;24.32;61.18;101697.97;5083588;28;20040;-70
2022/07/24 08:56:33;;;;;;;3.13;1.40;;;;;;;23.97;62.26;101692.25;5057029;28;20029;-70
2022/07/24 08:58:59;;;;;;;2.35;1.63;;;;;;;23.81;64.26;101694.44;5079595;28;20039;-70
2022/07/24 09:01:24;;;;;;;3.05;0.98;;;;;;;23.93;64.81;101688.34;5073603;28;20024;-70
2022/07/24 09:03:50;;;;;;;4.32;1.55;;;;;;;24.32;63.74;101697.16;5073714;28;20033;-70
2022/07/24 09:06:15;;;;;;;1.95;1.27;;;;;;;24.46;63.14;101696.00;5073623;28;20034;-70
2022/07/24 09:08:42;;;;;;;1.73;1.33;;;;;;;24.73;62.35;101698.47;5080222;28;20020;-70
2022/07/24 09:11:09;;;;;;;2.25;1.45;;;;;;;25.11;62.21;101690.16;5074322;28;20020;-69
2022/07/24 09:16:22;;;;;;;2.10;1.02;;;;;;;26.41;58.53;101690.56;5075714;28;20086;-69
2022/07/24 09:18:49;;;;;;;2.08;1.30;;;;;;;26.64;57.29;101697.88;5071998;28;20024;-69
2022/07/24 09:21:16;;;;;;;2.05;1.10;;;;;;;27.84;54.83;101696.19;5079127;28;20086;-70
2022/07/24 09:23:42;;;;;;;1.50;1.27;;;;;;;27.12;55.36;101699.44;5076200;28;20028;-70
2022/07/24 09:26:07;;;;;;;2.08;1.25;;;;;;;27.36;55.43;101697.50;5078759;28;20054;-70
2022/07/24 09:28:54;;;;;;;5.05;1.55;;;;;;;27.15;57.26;101707.06;5075151;28;20568;-70
2022/07/24 09:31:24;;;;;;;2.58;1.30;;;;;;;26.71;56.34;101697.75;5070568;28;20020;-70
2022/07/24 09:33:50;;;;;;;1.83;1.33;;;;;;;26.07;58.78;101698.44;5068983;28;20028;-70
2022/07/24 09:36:18;;;;;;;1.63;1.27;;;;;;;26.08;59.31;101700.06;5078225;28;20170;-70
2022/07/24 09:38:47;;;;;;;2.50;1.50;;;;;;;27.07;57.24;101696.63;5081139;28;20080;-70
2022/07/24 09:41:22;;;;;;;4.78;1.58;;;;;;;27.86;55.79;101698.72;5069611;28;20046;-70
2022/07/24 09:43:57;;;;;;;1.50;1.25;;;;;;;28.22;54.57;101697.41;5090954;28;20031;-70
2022/07/24 09:46:25;;;;;;;1.73;1.30;;;;;;;28.78;54.28;101693.88;5077585;28;20078;-70
2022/07/24 09:48:54;;;;;;;3.05;1.60;;;;;;;29.64;51.63;101701.41;5073870;28;20025;-70
2022/07/24 09:51:20;;;;;;;2.95;1.67;;;;;;;27.75;54.91;101691.44;5077924;28;20035;-70
2022/07/24 09:53:52;;;;;;;2.78;1.45;;;;;;;27.06;56.56;101692.28;5074859;28;20396;-70
2022/07/24 09:56:18;;;;;;;4.15;1.48;;;;;;;27.08;56.59;101682.84;5077529;28;20119;-69
2022/07/24 09:58:46;;;;;;;3.72;1.35;;;;;;;27.82;55.65;101676.63;5071163;28;20025;-69
2022/07/24 10:01:14;;;;;;;3.20;1.15;;;;;;;27.35;56.53;101673.34;5081652;28;20405;-70
2022/07/24 10:03:41;;;;;;;2.85;1.40;;;;;;;27.40;57.25;101671.56;5077700;28;20035;-70
2022/07/24 10:06:13;;;;;;;2.30;1.45;;;;;;;26.70;57.47;101686.13;5082558;28;20028;-69
2022/07/24 10:08:41;;;;;;;2.30;1.40;;;;;;;26.98;58.95;101688.06;5084546;28;20479;-69
2022/07/24 10:11:08;;;;;;;1.88;1.48;;;;;;;27.23;58.27;101676.13;5083354;28;20361;-69
2022/07/24 10:13:33;;;;;;;6.00;1.50;;;;;;;28.01;56.28;101668.31;5069627;28;20045;-70
2022/07/24 10:16:03;;;;;;;1.77;1.30;;;;;;;27.59;56.17;101676.75;5069959;28;20434;-69
2022/07/24 10:18:51;;;;;;;1.85;1.38;;;;;;;27.09;57.33;101667.41;5074177;28;20052;-70
2022/07/24 10:21:20;;;;;;;2.85;1.20;;;;;;;26.99;58.82;101672.63;5075372;28;20073;-69
2022/07/24 10:24:04;;;;;;;3.80;1.55;;;;;;;28.40;55.72;101669.16;5080129;28;20515;-70
2022/07/24 10:26:44;;;;;;;2.67;1.17;;;;;;;28.33;54.67;101671.25;5075269;28;20048;-69
2022/07/24 10:29:14;;;;;;;1.90;0.93;;;;;;;28.20;55.01;101666.97;5069860;28;20586;-69
2022/07/24 10:31:48;;;;;;;2.20;1.42;;;;;;;27.88;55.82;101672.97;5069418;28;20032;-70
2022/07/24 10:34:39;;;;;;;1.75;1.25;;;;;;;28.65;54.82;101673.34;5071540;28;20453;-70
2022/07/24 10:37:23;;;;;;;1.33;1.02;;;;;;;27.99;57.21;101665.00;5070916;28;20480;-70
2022/07/24 10:40:01;;;;;;;1.33;0.90;;;;;;;28.33;54.85;101670.41;5078908;28;20488;-70
2022/07/24 10:42:27;;;;;;;2.33;1.20;;;;;;;26.99;56.03;101673.44;5072881;28;20786;-69
2022/07/24 10:45:22;;;;;;;3.47;1.27;;;;;;;27.48;54.92;101667.63;5079146;28;20038;-69
2022/07/24 10:47:48;;;;;;;1.40;1.00;;;;;;;28.49;53.48;101669.59;4993447;28;20566;-69
2022/07/24 10:50:14;;;;;;;3.35;1.17;;;;;;;28.83;52.50;101669.47;4993878;28;20144;-70
2022/07/24 10:52:41;;;;;;;1.85;1.15;;;;;;;27.45;55.23;101665.41;4995013;28;20043;-70
2022/07/24 10:55:32;;;;;;;1.70;1.15;;;;;;;27.41;56.63;101669.66;4998432;28;20181;-70
2022/07/24 10:58:01;;;;;;;1.48;0.70;;;;;;;28.24;55.15;101668.13;4995920;28;20031;-70
2022/07/24 11:00:36;;;;;;;1.45;0.90;;;;;;;29.85;53.02;101675.22;4994889;28;20040;-69
2022/07/24 11:03:18;;;;;;;2.97;0.93;;;;;;;29.57;52.63;101671.69;4984562;28;20057;-70
2022/07/24 11:06:11;;;;;;;1.95;1.17;;;;;;;28.48;53.37;101668.78;4989138;28;20073;-70
2022/07/24 11:09:02;;;;;;;2.63;1.25;;;;;;;28.21;55.99;101667.78;4984843;28;20077;-70
2022/07/24 11:11:28;;;;;;;2.58;1.13;;;;;;;27.65;55.17;101659.53;4992409;28;20050;-70
2022/07/24 11:13:57;;;;;;;3.33;1.35;;;;;;;27.05;57.45;101667.06;4992922;28;20126;-70
2022/07/24 11:16:27;;;;;;;2.20;0.98;;;;;;;27.27;55.82;101659.13;4992564;28;20034;-70
2022/07/24 11:18:52;;;;;;;2.05;0.90;;;;;;;27.98;55.36;101657.94;4995390;28;20061;-70
2022/07/24 11:21:38;;;;;;;3.05;1.27;;;;;;;28.06;56.45;101660.22;4993087;28;20068;-70
2022/07/24 11:24:16;;;;;;;1.88;1.13;;;;;;;28.20;54.57;101658.84;5024416;28;20052;-70